Time;durP1;ratioP1;P1;durP2;ratioP2;P2;SDS_P1;SDS_P2;PMS_P1;PMS_P2;Temp;Humidity;BMP_temperature;BMP_pressure;BME280_temperature;BME280_humidity;BME280_pressure;Samples;Min_cycle;Max_cycle;Signal;HPM_P1;HPM_P2
2023/12/20 00:03:19;;;;;;;2.28;2.08;;;;;;;;;;8225700;28;20197;-57
2023/12/20 00:07:19;;;;;;;1.90;1.63;;;;;;;;;;8213409;28;20034;-56
2023/12/20 00:11:19;;;;;;;1.63;1.52;;;;;;;;;;8217173;28;20033;-57
2023/12/20 00:15:19;;;;;;;1.48;1.38;;;;;;;;;;8220135;28;20172;-57
2023/12/20 00:19:20;;;;;;;3.30;1.50;;;;;;;;;;8224810;28;20878;-57
2023/12/20 00:23:20;;;;;;;3.35;1.42;;;;;;;;;;8224314;28;20060;-56
2023/12/20 00:27:20;;;;;;;2.10;1.90;;;;;;;;;;8225834;28;20084;-57
2023/12/20 00:31:20;;;;;;;1.50;1.40;;;;;;;;;;8228504;28;20030;-57
2023/12/20 00:35:20;;;;;;;1.80;1.70;;;;;;;;;;8233115;28;20107;-56
2023/12/20 00:39:21;;;;;;;1.50;1.40;;;;;;;;;;8230257;28;20017;-57
2023/12/20 00:43:21;;;;;;;1.45;1.35;;;;;;;;;;8228536;28;20019;-57
2023/12/20 00:47:22;;;;;;;1.80;1.50;;;;;;;;;;8225704;28;20041;-57
2023/12/20 00:51:22;;;;;;;1.50;1.40;;;;;;;;;;8224702;28;20195;-56
2023/12/20 00:55:22;;;;;;;2.15;1.60;;;;;;;;;;8228812;28;20972;-56
2023/12/20 00:59:22;;;;;;;1.40;1.30;;;;;;;;;;8229045;28;21360;-56
2023/12/20 01:03:23;;;;;;;1.50;1.40;;;;;;;;;;8223192;28;20038;-58
2023/12/20 01:07:23;;;;;;;1.70;1.60;;;;;;;;;;8223361;28;20037;-57
2023/12/20 01:11:23;;;;;;;1.83;1.70;;;;;;;;;;8226914;28;21071;-57
2023/12/20 01:15:23;;;;;;;2.28;1.60;;;;;;;;;;8224935;28;20044;-56
2023/12/20 01:19:24;;;;;;;1.50;1.40;;;;;;;;;;8227614;28;20032;-56
2023/12/20 01:23:24;;;;;;;2.00;1.70;;;;;;;;;;8225493;28;20117;-57
2023/12/20 01:27:25;;;;;;;1.50;1.40;;;;;;;;;;8228672;28;20027;-57
2023/12/20 01:31:27;;;;;;;1.70;1.60;;;;;;;;;;8231972;28;20037;-56
2023/12/20 01:35:28;;;;;;;1.70;1.60;;;;;;;;;;8233262;28;20015;-58
2023/12/20 01:39:28;;;;;;;1.52;1.42;;;;;;;;;;8229652;28;20049;-57
2023/12/20 01:43:29;;;;;;;1.83;1.73;;;;;;;;;;8228901;28;20907;-56
2023/12/20 01:47:30;;;;;;;1.65;1.55;;;;;;;;;;8225331;28;20169;-58
2023/12/20 01:51:30;;;;;;;1.65;1.55;;;;;;;;;;8223472;28;20681;-58
2023/12/20 01:55:31;;;;;;;1.80;1.70;;;;;;;;;;8227440;28;20125;-57
2023/12/20 01:59:32;;;;;;;1.50;1.40;;;;;;;;;;8225619;28;20029;-57
2023/12/20 02:03:32;;;;;;;1.70;1.60;;;;;;;;;;8221621;28;20149;-57
2023/12/20 02:07:34;;;;;;;1.48;1.38;;;;;;;;;;8226062;28;20061;-57
2023/12/20 02:11:36;;;;;;;1.60;1.50;;;;;;;;;;8221410;28;20657;-57
2023/12/20 02:15:37;;;;;;;1.50;1.40;;;;;;;;;;8223856;28;20041;-58
2023/12/20 02:19:37;;;;;;;1.45;1.35;;;;;;;;;;8221553;28;20100;-59
2023/12/20 02:23:38;;;;;;;1.42;1.38;;;;;;;;;;8224524;28;20041;-58
2023/12/20 02:27:39;;;;;;;1.45;1.35;;;;;;;;;;8223818;28;20018;-58
2023/12/20 02:31:39;;;;;;;1.38;1.27;;;;;;;;;;8223039;28;20045;-57
2023/12/20 02:35:39;;;;;;;1.30;1.20;;;;;;;;;;8224393;28;20909;-57
2023/12/20 02:39:40;;;;;;;1.10;1.10;;;;;;;;;;8222143;28;20022;-58
2023/12/20 02:43:40;;;;;;;1.20;1.10;;;;;;;;;;8224686;28;20284;-58
2023/12/20 02:47:40;;;;;;;1.10;1.10;;;;;;;;;;8222986;28;20034;-58
2023/12/20 02:51:40;;;;;;;1.27;1.20;;;;;;;;;;8232668;28;20040;-58
2023/12/20 02:55:40;;;;;;;1.30;1.23;;;;;;;;;;8235694;28;20044;-57
2023/12/20 02:59:41;;;;;;;1.25;1.20;;;;;;;;;;8232322;28;20021;-55
2023/12/20 03:03:41;;;;;;;1.48;1.38;;;;;;;;;;8222680;28;20046;-55
2023/12/20 03:07:41;;;;;;;1.33;1.23;;;;;;;;;;8220827;28;20104;-55
2023/12/20 03:11:42;;;;;;;1.25;1.20;;;;;;;;;;8223360;28;20026;-56
2023/12/20 03:15:42;;;;;;;1.40;1.30;;;;;;;;;;8220549;28;20042;-57
2023/12/20 03:19:43;;;;;;;1.52;1.42;;;;;;;;;;8219962;28;20021;-57
2023/12/20 03:23:44;;;;;;;1.50;1.40;;;;;;;;;;8221983;28;20057;-56
2023/12/20 03:27:44;;;;;;;2.03;1.48;;;;;;;;;;8222296;28;20036;-53
2023/12/20 03:31:44;;;;;;;1.55;1.45;;;;;;;;;;8222912;28;20530;-57
2023/12/20 03:35:44;;;;;;;1.60;1.50;;;;;;;;;;8217407;28;20069;-58
2023/12/20 03:39:44;;;;;;;1.55;1.35;;;;;;;;;;8221199;28;20021;-57
2023/12/20 03:43:45;;;;;;;1.58;1.48;;;;;;;;;;8218581;28;20037;-57
2023/12/20 03:47:45;;;;;;;1.50;1.40;;;;;;;;;;8223853;28;20038;-57
2023/12/20 03:51:45;;;;;;;1.67;1.58;;;;;;;;;;8224552;28;20030;-58
2023/12/20 03:55:45;;;;;;;1.85;1.70;;;;;;;;;;8218511;28;20045;-56
2023/12/20 03:59:46;;;;;;;2.28;1.65;;;;;;;;;;8220984;28;20030;-56
2023/12/20 04:03:47;;;;;;;1.92;1.83;;;;;;;;;;8220914;28;20052;-57
2023/12/20 04:07:47;;;;;;;1.90;1.80;;;;;;;;;;8216482;28;20022;-57
2023/12/20 04:11:47;;;;;;;2.30;1.70;;;;;;;;;;8223029;28;20057;-57
2023/12/20 04:15:49;;;;;;;1.50;1.40;;;;;;;;;;8221695;28;20033;-57
2023/12/20 04:19:49;;;;;;;1.73;1.63;;;;;;;;;;8218655;28;20025;-57
2023/12/20 04:23:50;;;;;;;1.95;1.70;;;;;;;;;;8219951;28;20057;-60
2023/12/20 04:27:50;;;;;;;1.85;1.60;;;;;;;;;;8219431;28;20027;-58
2023/12/20 04:31:51;;;;;;;2.38;2.17;;;;;;;;;;8219022;28;20162;-57
2023/12/20 04:35:51;;;;;;;1.88;1.77;;;;;;;;;;8221549;28;20041;-57
2023/12/20 04:39:52;;;;;;;2.70;2.23;;;;;;;;;;8219385;28;20061;-57
2023/12/20 04:43:52;;;;;;;2.45;2.17;;;;;;;;;;8220167;28;20337;-57
2023/12/20 04:47:52;;;;;;;2.00;1.60;;;;;;;;;;8220249;28;20042;-57
2023/12/20 04:51:52;;;;;;;1.83;1.73;;;;;;;;;;8218070;28;20140;-57
2023/12/20 04:55:53;;;;;;;2.20;1.90;;;;;;;;;;8226498;28;20068;-58
2023/12/20 04:59:53;;;;;;;1.60;1.48;;;;;;;;;;8223135;28;20869;-58
2023/12/20 05:03:53;;;;;;;1.70;1.60;;;;;;;;;;8223890;28;20511;-57
2023/12/20 05:07:53;;;;;;;1.43;1.33;;;;;;;;;;8223251;28;20109;-57
2023/12/20 05:11:54;;;;;;;1.48;1.38;;;;;;;;;;8221664;28;20324;-56
2023/12/20 05:15:54;;;;;;;1.52;1.40;;;;;;;;;;8224554;28;20047;-56
2023/12/20 05:19:54;;;;;;;3.45;1.40;;;;;;;;;;8222753;28;20038;-57
2023/12/20 05:23:54;;;;;;;1.58;1.05;;;;;;;;;;8222747;28;20034;-57
2023/12/20 05:27:55;;;;;;;3.40;0.90;;;;;;;;;;8225049;28;20044;-58
2023/12/20 05:31:57;;;;;;;2.97;1.27;;;;;;;;;;8219504;28;20108;-58
2023/12/20 05:35:58;;;;;;;3.10;1.20;;;;;;;;;;8222146;28;20057;-55
2023/12/20 05:39:58;;;;;;;2.30;1.25;;;;;;;;;;8223167;28;20050;-57
2023/12/20 05:43:58;;;;;;;4.70;1.10;;;;;;;;;;8219314;28;20401;-58
2023/12/20 05:47:58;;;;;;;4.60;1.02;;;;;;;;;;8222294;28;20348;-57
2023/12/20 05:51:58;;;;;;;8.48;1.27;;;;;;;;;;8229351;28;20823;-57
2023/12/20 05:55:59;;;;;;;3.92;0.90;;;;;;;;;;8226681;28;20140;-57
2023/12/20 05:59:59;;;;;;;5.45;1.15;;;;;;;;;;8227891;28;20422;-57
2023/12/20 06:04:00;;;;;;;2.53;1.17;;;;;;;;;;8222159;28;20478;-57
2023/12/20 06:08:02;;;;;;;9.32;2.28;;;;;;;;;;8222845;28;20970;-57
2023/12/20 06:12:03;;;;;;;9.88;3.78;;;;;;;;;;8216739;28;20033;-55
2023/12/20 06:16:05;;;;;;;5.53;2.60;;;;;;;;;;8223205;28;20038;-56
2023/12/20 06:20:07;;;;;;;7.97;4.13;;;;;;;;;;8223015;28;20037;-57
2023/12/20 06:24:07;;;;;;;6.43;1.80;;;;;;;;;;8231033;28;20113;-58
2023/12/20 06:28:10;;;;;;;2.28;1.38;;;;;;;;;;8229810;28;21471;-57
2023/12/20 06:32:10;;;;;;;3.75;1.23;;;;;;;;;;8221496;28;20764;-57
2023/12/20 06:36:13;;;;;;;4.93;2.97;;;;;;;;;;8215589;28;20061;-56
2023/12/20 06:40:13;;;;;;;11.07;3.93;;;;;;;;;;8222553;28;20293;-56
2023/12/20 06:44:14;;;;;;;6.57;2.97;;;;;;;;;;8222756;28;20077;-56
2023/12/20 06:48:14;;;;;;;4.55;2.50;;;;;;;;;;8226320;28;20277;-57
2023/12/20 06:52:14;;;;;;;6.47;3.10;;;;;;;;;;8222962;28;20060;-56
2023/12/20 06:56:16;;;;;;;4.15;1.50;;;;;;;;;;8220670;28;20912;-56
2023/12/20 07:00:17;;;;;;;5.90;1.65;;;;;;;;;;8225722;28;20025;-57
2023/12/20 07:04:21;;;;;;;2.78;1.00;;;;;;;;;;8224445;28;20942;-59
2023/12/20 07:08:21;;;;;;;;;;;;;;;;;;8225730;28;20104;-58
2023/12/20 07:12:22;;;;;;;9.05;2.42;;;;;;;;;;8220312;28;19913;-57
2023/12/20 07:16:22;;;;;;;4.43;1.15;;;;;;;;;;8219674;28;20815;-58
2023/12/20 07:20:22;;;;;;;4.53;1.20;;;;;;;;;;8223632;28;20025;-58
2023/12/20 07:24:23;;;;;;;10.10;1.25;;;;;;;;;;8220772;28;20067;-57
2023/12/20 07:28:24;;;;;;;6.35;1.40;;;;;;;;;;8222264;28;20881;-57
2023/12/20 07:32:24;;;;;;;4.20;1.30;;;;;;;;;;8221853;28;20696;-56
2023/12/20 07:36:24;;;;;;;1.97;1.03;;;;;;;;;;8222981;28;20033;-57
2023/12/20 07:40:25;;;;;;;5.45;1.40;;;;;;;;;;8221173;28;20374;-57
2023/12/20 07:44:25;;;;;;;4.95;1.35;;;;;;;;;;8227008;28;20033;-57
2023/12/20 07:48:25;;;;;;;4.63;1.25;;;;;;;;;;8222905;28;20153;-57
2023/12/20 07:52:26;;;;;;;4.95;1.48;;;;;;;;;;8223309;28;20033;-57
2023/12/20 07:56:26;;;;;;;9.30;1.80;;;;;;;;;;8222307;28;20021;-56
2023/12/20 08:00:26;;;;;;;3.38;1.38;;;;;;;;;;8221649;28;20073;-57
2023/12/20 08:04:27;;;;;;;5.15;1.60;;;;;;;;;;8224629;28;20036;-57
2023/12/20 08:08:27;;;;;;;6.53;1.80;;;;;;;;;;8224693;28;20034;-56
2023/12/20 08:12:27;;;;;;;6.65;3.60;;;;;;;;;;8221968;28;20084;-58
2023/12/20 08:16:27;;;;;;;4.30;1.77;;;;;;;;;;8223919;28;20398;-57
2023/12/20 08:20:28;;;;;;;5.50;1.98;;;;;;;;;;8222745;28;20108;-58
2023/12/20 08:24:29;;;;;;;10.43;2.20;;;;;;;;;;8221242;28;20022;-57
2023/12/20 08:28:31;;;;;;;8.38;1.88;;;;;;;;;;8225115;28;20029;-58
2023/12/20 08:32:32;;;;;;;6.97;3.15;;;;;;;;;;8231022;28;20046;-58
2023/12/20 08:36:32;;;;;;;8.23;2.28;;;;;;;;;;8231126;28;20124;-58
2023/12/20 08:40:32;;;;;;;3.70;1.73;;;;;;;;;;8226231;28;20415;-56
2023/12/20 08:44:32;;;;;;;6.33;2.03;;;;;;;;;;8232455;28;20057;-57
2023/12/20 08:48:32;;;;;;;3.70;1.80;;;;;;;;;;8229183;28;20273;-56
2023/12/20 08:52:33;;;;;;;9.15;1.90;;;;;;;;;;8228875;28;20053;-55
2023/12/20 08:56:33;;;;;;;6.28;1.73;;;;;;;;;;8230586;28;20547;-55
2023/12/20 09:00:34;;;;;;;5.53;2.10;;;;;;;;;;8229343;28;20916;-56
2023/12/20 09:04:34;;;;;;;5.40;1.90;;;;;;;;;;8227545;28;20032;-56
2023/12/20 09:08:34;;;;;;;7.78;2.50;;;;;;;;;;8228960;28;20057;-56
2023/12/20 09:12:35;;;;;;;5.65;2.40;;;;;;;;;;8230495;28;20022;-57
2023/12/20 09:16:35;;;;;;;11.70;4.38;;;;;;;;;;8231125;28;20038;-56
2023/12/20 09:20:36;;;;;;;20.38;6.00;;;;;;;;;;8234387;28;20041;-57
2023/12/20 09:24:36;;;;;;;14.75;5.15;;;;;;;;;;8238379;28;20911;-57
2023/12/20 09:28:36;;;;;;;12.27;4.10;;;;;;;;;;8235034;28;20040;-57
2023/12/20 09:32:37;;;;;;;10.30;3.17;;;;;;;;;;8229435;28;20837;-56
2023/12/20 09:36:40;;;;;;;5.60;2.45;;;;;;;;;;8230265;28;20475;-57
2023/12/20 09:40:41;;;;;;;4.57;2.20;;;;;;;;;;8226620;28;20018;-56
2023/12/20 09:44:42;;;;;;;4.75;2.22;;;;;;;;;;8231397;28;20273;-56
2023/12/20 09:48:44;;;;;;;7.63;1.60;;;;;;;;;;8223061;28;20029;-55
2023/12/20 09:52:45;;;;;;;7.00;1.77;;;;;;;;;;8224677;28;20096;-56
2023/12/20 09:56:46;;;;;;;6.22;1.77;;;;;;;;;;8230340;28;20033;-55
2023/12/20 10:00:46;;;;;;;7.22;1.92;;;;;;;;;;8229492;28;20060;-57
2023/12/20 10:04:47;;;;;;;3.38;1.40;;;;;;;;;;8222793;28;20053;-57
2023/12/20 10:08:48;;;;;;;4.15;1.92;;;;;;;;;;8224455;28;20030;-57
2023/12/20 10:13:10;;;;;;;8.63;1.77;;;;;;;;;;8228508;28;20722;-59
2023/12/20 10:17:10;;;;;;;4.03;2.05;;;;;;;;;;8225028;28;20169;-58
2023/12/20 10:21:11;;;;;;;7.55;1.80;;;;;;;;;;8226341;28;20177;-58
2023/12/20 10:25:12;;;;;;;7.53;1.70;;;;;;;;;;8224323;28;20061;-57
2023/12/20 10:29:12;;;;;;;6.35;2.08;;;;;;;;;;8226500;28;20040;-57
2023/12/20 10:33:12;;;;;;;11.57;2.30;;;;;;;;;;8233160;28;20050;-57
2023/12/20 10:37:12;;;;;;;6.60;2.30;;;;;;;;;;8236758;28;20120;-56
2023/12/20 10:41:13;;;;;;;2.37;1.60;;;;;;;;;;8237305;28;20030;-57
2023/12/20 10:45:15;;;;;;;6.60;1.85;;;;;;;;;;8238204;28;20284;-57
2023/12/20 10:49:17;;;;;;;4.97;1.90;;;;;;;;;;8238051;28;20030;-56
2023/12/20 10:53:17;;;;;;;7.03;2.42;;;;;;;;;;8232981;28;20033;-57
2023/12/20 10:57:18;;;;;;;11.57;2.45;;;;;;;;;;8238120;28;20026;-57
2023/12/20 11:01:19;;;;;;;8.43;1.88;;;;;;;;;;8224685;28;20164;-57
2023/12/20 11:05:30;;;;;;;11.23;2.45;;;;;;;;;;8224760;28;20402;-57
2023/12/20 11:09:33;;;;;;;5.72;2.05;;;;;;;;;;8221010;28;20120;-58
2023/12/20 11:13:35;;;;;;;4.80;1.83;;;;;;;;;;8222363;28;20048;-56
2023/12/20 11:17:38;;;;;;;7.10;2.25;;;;;;;;;;8219534;28;20043;-57
2023/12/20 11:21:39;;;;;;;5.97;2.15;;;;;;;;;;8221704;28;20852;-57
2023/12/20 11:25:49;;;;;;;5.57;2.25;;;;;;;;;;8220347;28;20033;-56
2023/12/20 11:29:53;;;;;;;6.30;2.08;;;;;;;;;;8221461;28;20143;-59
2023/12/20 11:34:12;;;;;;;4.22;1.73;;;;;;;;;;8223788;28;20055;-58
2023/12/20 11:38:14;;;;;;;8.60;2.22;;;;;;;;;;8223888;28;20034;-59
2023/12/20 11:42:16;;;;;;;6.68;2.42;;;;;;;;;;8223050;28;20048;-58
2023/12/20 11:46:16;;;;;;;5.72;2.72;;;;;;;;;;8224877;28;20775;-57
2023/12/20 11:50:17;;;;;;;6.90;2.67;;;;;;;;;;8221954;28;20040;-57
2023/12/20 11:54:17;;;;;;;10.32;2.60;;;;;;;;;;8216747;28;20065;-58
2023/12/20 11:58:17;;;;;;;5.55;2.15;;;;;;;;;;8221980;28;20574;-57
2023/12/20 12:02:17;;;;;;;9.68;2.30;;;;;;;;;;8219270;28;20068;-58
2023/12/20 12:06:17;;;;;;;10.85;2.20;;;;;;;;;;8218245;28;20022;-58
2023/12/20 12:10:18;;;;;;;6.72;2.15;;;;;;;;;;8227014;28;20052;-59
2023/12/20 12:14:19;;;;;;;4.85;2.28;;;;;;;;;;8230990;28;20560;-58
2023/12/20 12:18:19;;;;;;;7.78;2.05;;;;;;;;;;8232060;28;20044;-57
2023/12/20 12:22:19;;;;;;;13.43;1.98;;;;;;;;;;8226934;28;20038;-57
2023/12/20 12:26:20;;;;;;;8.52;2.10;;;;;;;;;;8225953;28;20787;-56
2023/12/20 12:30:20;;;;;;;9.25;1.63;;;;;;;;;;8226398;28;20033;-57
2023/12/20 12:34:20;;;;;;;8.10;2.15;;;;;;;;;;8231372;28;20025;-57
2023/12/20 12:38:21;;;;;;;5.22;1.60;;;;;;;;;;8229681;28;20042;-56
2023/12/20 12:42:25;;;;;;;7.05;1.80;;;;;;;;;;8231431;28;20027;-57
2023/12/20 12:46:25;;;;;;;8.93;1.98;;;;;;;;;;8233908;28;20041;-58
2023/12/20 12:50:28;;;;;;;9.52;2.22;;;;;;;;;;8222610;28;20095;-57
2023/12/20 12:54:28;;;;;;;9.18;1.98;;;;;;;;;;8215470;28;20025;-57
2023/12/20 12:58:28;;;;;;;5.22;1.73;;;;;;;;;;8224250;28;20095;-56
2023/12/20 13:02:29;;;;;;;6.57;1.80;;;;;;;;;;8228337;28;20161;-57
2023/12/20 13:06:29;;;;;;;7.00;1.70;;;;;;;;;;8233233;28;20284;-56
2023/12/20 13:10:29;;;;;;;8.38;1.63;;;;;;;;;;8234409;28;20030;-57
2023/12/20 13:14:33;;;;;;;7.27;1.63;;;;;;;;;;8235640;28;20022;-57
2023/12/20 13:18:33;;;;;;;7.45;1.55;;;;;;;;;;8240996;28;21092;-57
2023/12/20 13:22:33;;;;;;;5.25;1.60;;;;;;;;;;8237724;28;20037;-56
2023/12/20 13:26:34;;;;;;;6.18;2.22;;;;;;;;;;8243545;28;20018;-56
2023/12/20 13:30:34;;;;;;;10.13;1.90;;;;;;;;;;8230656;28;20041;-56
2023/12/20 13:34:34;;;;;;;8.18;2.10;;;;;;;;;;8231943;28;20029;-56
2023/12/20 13:38:34;;;;;;;6.88;1.85;;;;;;;;;;8229455;28;20044;-57
2023/12/20 13:42:34;;;;;;;6.18;2.20;;;;;;;;;;8230946;28;20411;-56
2023/12/20 13:46:35;;;;;;;4.87;1.50;;;;;;;;;;8226834;28;20038;-56
2023/12/20 13:50:36;;;;;;;7.90;2.10;;;;;;;;;;8226869;28;20054;-56
2023/12/20 13:54:36;;;;;;;6.03;1.80;;;;;;;;;;8227651;28;21252;-56
2023/12/20 13:58:36;;;;;;;6.53;1.52;;;;;;;;;;8231065;28;20033;-57
2023/12/20 14:02:36;;;;;;;9.50;1.92;;;;;;;;;;8226839;28;20045;-57
2023/12/20 14:06:36;;;;;;;9.43;1.67;;;;;;;;;;8225647;28;20037;-57
2023/12/20 14:10:38;;;;;;;6.88;1.67;;;;;;;;;;8229077;28;20056;-56
2023/12/20 14:14:38;;;;;;;8.57;1.98;;;;;;;;;;8226220;28;20030;-57
2023/12/20 14:18:40;;;;;;;7.57;1.73;;;;;;;;;;8223867;28;20041;-56
2023/12/20 14:22:43;;;;;;;7.20;1.80;;;;;;;;;;8223999;28;20026;-55
2023/12/20 14:26:43;;;;;;;6.28;2.10;;;;;;;;;;8224107;28;20030;-57
2023/12/20 14:30:44;;;;;;;9.30;1.75;;;;;;;;;;8240472;28;20091;-57
2023/12/20 14:34:45;;;;;;;6.32;1.58;;;;;;;;;;8242949;28;20032;-57
2023/12/20 14:38:47;;;;;;;8.75;2.00;;;;;;;;;;8243249;28;20826;-56
2023/12/20 14:42:47;;;;;;;8.90;1.98;;;;;;;;;;8227567;28;20099;-56
2023/12/20 14:46:47;;;;;;;10.45;2.30;;;;;;;;;;8225903;28;20038;-56
2023/12/20 14:50:50;;;;;;;5.55;2.00;;;;;;;;;;8224565;28;20064;-56
2023/12/20 14:54:50;;;;;;;5.68;1.77;;;;;;;;;;8226890;28;20029;-57
2023/12/20 14:58:51;;;;;;;4.65;1.58;;;;;;;;;;8225780;28;20128;-56
2023/12/20 15:02:51;;;;;;;7.18;1.58;;;;;;;;;;8226953;28;20037;-56
2023/12/20 15:06:52;;;;;;;6.55;2.13;;;;;;;;;;8225866;28;20121;-56
2023/12/20 15:10:52;;;;;;;7.78;1.70;;;;;;;;;;8235547;28;20053;-57
2023/12/20 15:14:53;;;;;;;7.32;2.28;;;;;;;;;;8241010;28;20129;-57
2023/12/20 15:18:54;;;;;;;5.53;1.77;;;;;;;;;;8243685;28;20065;-56
2023/12/20 15:22:55;;;;;;;10.65;2.22;;;;;;;;;;8242017;28;20029;-57
2023/12/20 15:26:55;;;;;;;9.07;1.80;;;;;;;;;;8242534;28;20950;-57
2023/12/20 15:30:56;;;;;;;7.28;1.60;;;;;;;;;;8243185;28;20611;-57
2023/12/20 15:34:56;;;;;;;8.55;1.92;;;;;;;;;;8244019;28;20033;-56
2023/12/20 15:38:57;;;;;;;7.75;2.30;;;;;;;;;;8238732;28;20763;-56
2023/12/20 15:42:59;;;;;;;10.13;2.10;;;;;;;;;;8228483;28;20168;-57
2023/12/20 15:46:59;;;;;;;7.72;2.25;;;;;;;;;;8228715;28;20056;-58
2023/12/20 15:51:03;;;;;;;6.32;1.92;;;;;;;;;;8225196;28;20022;-57
2023/12/20 15:55:04;;;;;;;7.88;2.25;;;;;;;;;;8227731;28;20040;-59
2023/12/20 15:59:04;;;;;;;7.70;2.58;;;;;;;;;;8228746;28;20034;-57
2023/12/20 16:03:04;;;;;;;7.15;3.80;;;;;;;;;;8228867;28;20041;-59
2023/12/20 16:07:04;;;;;;;4.22;1.77;;;;;;;;;;8224927;28;20028;-57
2023/12/20 16:11:05;;;;;;;3.83;1.77;;;;;;;;;;8225728;28;20051;-57
2023/12/20 16:15:05;;;;;;;7.00;1.90;;;;;;;;;;8225926;28;20439;-57
2023/12/20 16:19:05;;;;;;;9.55;2.38;;;;;;;;;;8226734;28;20284;-57
2023/12/20 16:23:05;;;;;;;4.40;1.80;;;;;;;;;;8221324;28;20141;-56
2023/12/20 16:27:06;;;;;;;10.90;2.28;;;;;;;;;;8222779;28;20083;-57
2023/12/20 16:31:06;;;;;;;9.50;2.00;;;;;;;;;;8221673;28;20820;-57
2023/12/20 16:35:06;;;;;;;6.63;2.28;;;;;;;;;;8220940;28;20026;-57
2023/12/20 16:39:07;;;;;;;9.93;2.70;;;;;;;;;;8221064;28;20174;-56
2023/12/20 16:43:07;;;;;;;8.38;1.95;;;;;;;;;;8223080;28;20033;-56
2023/12/20 16:47:08;;;;;;;7.25;1.95;;;;;;;;;;8217764;28;20135;-57
2023/12/20 16:51:08;;;;;;;5.60;2.03;;;;;;;;;;8222002;28;20021;-57
2023/12/20 16:55:09;;;;;;;11.90;2.45;;;;;;;;;;8226167;28;20030;-56
2023/12/20 16:59:09;;;;;;;8.52;2.22;;;;;;;;;;8230941;28;20567;-58
2023/12/20 17:03:09;;;;;;;10.25;2.30;;;;;;;;;;8222563;28;21087;-58
2023/12/20 17:07:10;;;;;;;12.60;2.33;;;;;;;;;;8229704;28;20244;-57
2023/12/20 17:11:10;;;;;;;9.05;2.65;;;;;;;;;;8226187;28;20280;-57
2023/12/20 17:15:10;;;;;;;7.55;2.20;;;;;;;;;;8231101;28;20155;-57
2023/12/20 17:19:11;;;;;;;7.72;2.33;;;;;;;;;;8225645;28;22743;-58
2023/12/20 17:23:11;;;;;;;4.90;2.03;;;;;;;;;;8224622;28;20018;-58
2023/12/20 17:27:13;;;;;;;6.97;2.53;;;;;;;;;;8223111;28;20431;-58
2023/12/20 17:31:13;;;;;;;7.93;2.28;;;;;;;;;;8219741;28;21579;-57
2023/12/20 17:35:13;;;;;;;11.77;2.65;;;;;;;;;;8218884;28;20030;-58
2023/12/20 17:39:16;;;;;;;7.87;2.53;;;;;;;;;;8218906;28;20034;-58
2023/12/20 17:43:16;;;;;;;10.63;2.50;;;;;;;;;;8221299;28;20279;-58
2023/12/20 17:47:16;;;;;;;7.63;2.23;;;;;;;;;;8223939;28;20042;-58
2023/12/20 17:51:16;;;;;;;8.55;2.92;;;;;;;;;;8220014;28;20276;-58
2023/12/20 17:55:17;;;;;;;8.40;2.53;;;;;;;;;;8223021;28;20034;-58
2023/12/20 17:59:17;;;;;;;7.35;2.70;;;;;;;;;;8222226;28;20026;-57
2023/12/20 18:03:17;;;;;;;5.50;2.10;;;;;;;;;;8217027;28;20029;-58
2023/12/20 18:07:17;;;;;;;8.98;2.40;;;;;;;;;;8220878;28;20168;-57
2023/12/20 18:11:18;;;;;;;11.70;2.35;;;;;;;;;;8235467;28;20033;-56
2023/12/20 18:15:18;;;;;;;12.33;2.90;;;;;;;;;;8232602;28;20069;-57
2023/12/20 18:19:18;;;;;;;5.85;2.20;;;;;;;;;;8235134;28;20280;-57
2023/12/20 18:23:18;;;;;;;7.57;2.30;;;;;;;;;;8233760;28;20029;-57
2023/12/20 18:27:18;;;;;;;6.50;2.22;;;;;;;;;;8232702;28;20026;-56
2023/12/20 18:31:19;;;;;;;10.40;2.53;;;;;;;;;;8231867;28;20053;-58
2023/12/20 18:35:19;;;;;;;6.53;2.50;;;;;;;;;;8239503;28;20018;-57
2023/12/20 18:39:19;;;;;;;8.25;2.42;;;;;;;;;;8232940;28;20021;-57
2023/12/20 18:43:20;;;;;;;9.43;2.73;;;;;;;;;;8230057;28;20010;-57
2023/12/20 18:47:20;;;;;;;5.63;2.30;;;;;;;;;;8235470;28;20285;-56
2023/12/20 18:51:21;;;;;;;7.47;2.35;;;;;;;;;;8216237;28;20022;-57
2023/12/20 18:55:21;;;;;;;6.80;2.40;;;;;;;;;;8212180;28;20037;-58
2023/12/20 18:59:21;;;;;;;7.32;2.35;;;;;;;;;;8215260;28;20041;-57
2023/12/20 19:03:21;;;;;;;7.73;2.43;;;;;;;;;;8214765;28;20558;-57
2023/12/20 19:07:21;;;;;;;5.50;2.40;;;;;;;;;;8220799;28;21651;-57
2023/12/20 19:11:22;;;;;;;5.35;2.55;;;;;;;;;;8216392;28;20112;-57
2023/12/20 19:15:22;;;;;;;7.57;2.40;;;;;;;;;;8218795;28;20049;-58
2023/12/20 19:19:23;;;;;;;8.20;2.67;;;;;;;;;;8213141;28;20467;-59
2023/12/20 19:23:23;;;;;;;8.38;2.38;;;;;;;;;;8217196;28;20157;-58
2023/12/20 19:27:24;;;;;;;5.20;2.70;;;;;;;;;;8217036;28;20120;-58
2023/12/20 19:31:24;;;;;;;8.45;2.50;;;;;;;;;;8217540;28;20284;-59
2023/12/20 19:35:24;;;;;;;4.97;2.33;;;;;;;;;;8216547;28;20662;-59
2023/12/20 19:39:24;;;;;;;5.03;2.40;;;;;;;;;;8216850;28;20709;-58
2023/12/20 19:43:24;;;;;;;7.32;2.70;;;;;;;;;;8214081;28;20022;-59
2023/12/20 19:47:25;;;;;;;5.28;2.65;;;;;;;;;;8217086;28;20713;-58
2023/12/20 19:51:25;;;;;;;6.78;2.90;;;;;;;;;;8217059;28;20036;-59
2023/12/20 19:55:27;;;;;;;8.77;3.30;;;;;;;;;;8219939;28;20022;-58
2023/12/20 19:59:27;;;;;;;8.50;2.80;;;;;;;;;;8217779;28;20548;-57
2023/12/20 20:03:27;;;;;;;9.15;2.22;;;;;;;;;;8214343;28;20119;-58
2023/12/20 20:07:28;;;;;;;6.00;2.53;;;;;;;;;;8213339;28;20029;-58
2023/12/20 20:11:28;;;;;;;4.70;2.30;;;;;;;;;;8217794;28;20037;-56
2023/12/20 20:15:28;;;;;;;5.30;2.67;;;;;;;;;;8216068;28;20123;-56
2023/12/20 20:19:29;;;;;;;5.45;3.05;;;;;;;;;;8216482;28;20018;-57
2023/12/20 20:23:30;;;;;;;3.88;2.42;;;;;;;;;;8214749;28;20029;-55
2023/12/20 20:27:30;;;;;;;3.75;2.53;;;;;;;;;;8224719;28;20030;-56
2023/12/20 20:31:33;;;;;;;3.53;2.10;;;;;;;;;;8234253;28;20030;-56
2023/12/20 20:35:33;;;;;;;4.18;2.13;;;;;;;;;;8236483;28;20026;-57
2023/12/20 20:39:34;;;;;;;5.25;2.05;;;;;;;;;;8235876;28;20022;-56
2023/12/20 20:43:34;;;;;;;4.43;2.10;;;;;;;;;;8236010;28;22018;-56
2023/12/20 20:47:34;;;;;;;4.97;3.03;;;;;;;;;;8232253;28;20041;-57
2023/12/20 20:51:34;;;;;;;6.57;2.30;;;;;;;;;;8233582;28;20461;-56
2023/12/20 20:55:35;;;;;;;4.20;2.20;;;;;;;;;;8227361;28;20293;-57
2023/12/20 20:59:35;;;;;;;6.07;3.08;;;;;;;;;;8229495;28;20777;-56
2023/12/20 21:03:35;;;;;;;4.38;2.63;;;;;;;;;;8222475;28;20489;-57
2023/12/20 21:07:36;;;;;;;5.82;2.70;;;;;;;;;;8221254;28;20057;-56
2023/12/20 21:11:36;;;;;;;3.92;2.13;;;;;;;;;;8232213;28;20141;-56
2023/12/20 21:15:36;;;;;;;3.65;2.00;;;;;;;;;;8234725;28;20042;-56
2023/12/20 21:19:36;;;;;;;3.27;1.93;;;;;;;;;;8230409;28;20029;-56
2023/12/20 21:23:36;;;;;;;2.13;1.92;;;;;;;;;;8231439;28;20284;-56
2023/12/20 21:27:39;;;;;;;2.53;1.98;;;;;;;;;;8231429;28;20026;-57
2023/12/20 21:31:39;;;;;;;3.05;1.80;;;;;;;;;;8221351;28;20097;-55
2023/12/20 21:35:39;;;;;;;2.20;1.60;;;;;;;;;;8223911;28;20104;-56
2023/12/20 21:39:39;;;;;;;2.72;1.77;;;;;;;;;;8218975;28;20304;-56
2023/12/20 21:43:40;;;;;;;1.63;1.45;;;;;;;;;;8222103;28;20535;-54
2023/12/20 21:47:42;;;;;;;4.20;1.60;;;;;;;;;;8223791;28;20132;-57
2023/12/20 21:51:42;;;;;;;4.07;1.60;;;;;;;;;;8222074;28;21096;-57
2023/12/20 21:55:42;;;;;;;2.83;1.50;;;;;;;;;;8219923;28;20022;-56
2023/12/20 21:59:43;;;;;;;5.07;1.60;;;;;;;;;;8214045;28;20830;-56
2023/12/20 22:03:43;;;;;;;3.88;1.60;;;;;;;;;;8218351;28;20522;-57
2023/12/20 22:07:43;;;;;;;2.97;1.58;;;;;;;;;;8221464;28;20084;-56
2023/12/20 22:11:43;;;;;;;4.40;1.83;;;;;;;;;;8222689;28;20041;-57
2023/12/20 22:15:43;;;;;;;2.05;1.85;;;;;;;;;;8219322;28;20045;-56
2023/12/20 22:19:44;;;;;;;2.35;1.48;;;;;;;;;;8222655;28;20144;-56
2023/12/20 22:23:44;;;;;;;2.83;1.33;;;;;;;;;;8232831;28;20198;-57
2023/12/20 22:27:44;;;;;;;2.93;1.77;;;;;;;;;;8238352;28;20273;-57
2023/12/20 22:31:44;;;;;;;1.60;1.50;;;;;;;;;;8232554;28;20296;-57
2023/12/20 22:35:45;;;;;;;2.15;1.60;;;;;;;;;;8233291;28;20060;-56
2023/12/20 22:39:45;;;;;;;3.17;1.50;;;;;;;;;;8232236;28;20141;-57
2023/12/20 22:43:45;;;;;;;3.42;1.52;;;;;;;;;;8221899;28;20261;-57
2023/12/20 22:47:45;;;;;;;3.50;1.52;;;;;;;;;;8226049;28;20033;-57
2023/12/20 22:51:46;;;;;;;2.95;1.67;;;;;;;;;;8220824;28;20026;-57
2023/12/20 22:55:46;;;;;;;2.45;1.70;;;;;;;;;;8220254;28;20033;-57
2023/12/20 22:59:46;;;;;;;2.83;1.50;;;;;;;;;;8223498;28;20019;-57
2023/12/20 23:03:46;;;;;;;2.50;1.50;;;;;;;;;;8219963;28;20939;-56
2023/12/20 23:07:47;;;;;;;2.05;1.30;;;;;;;;;;8224964;28;20868;-57
2023/12/20 23:11:47;;;;;;;1.75;1.40;;;;;;;;;;8223380;28;20038;-58
2023/12/20 23:15:47;;;;;;;2.08;1.15;;;;;;;;;;8223463;28;20037;-57
2023/12/20 23:19:47;;;;;;;1.50;1.13;;;;;;;;;;8217320;28;20033;-57
2023/12/20 23:23:48;;;;;;;0.80;0.80;;;;;;;;;;8220430;28;20308;-59
2023/12/20 23:27:51;;;;;;;1.23;0.90;;;;;;;;;;8225447;28;20343;-58
2023/12/20 23:31:52;;;;;;;1.73;1.13;;;;;;;;;;8222291;28;20036;-58
2023/12/20 23:35:52;;;;;;;1.40;0.80;;;;;;;;;;8222527;28;20025;-57
2023/12/20 23:39:52;;;;;;;1.75;0.73;;;;;;;;;;8226098;28;20358;-58
2023/12/20 23:43:52;;;;;;;0.75;0.70;;;;;;;;;;8223384;28;20029;-57
2023/12/20 23:47:52;;;;;;;0.88;0.63;;;;;;;;;;8222710;28;20034;-57
2023/12/20 23:51:53;;;;;;;1.10;0.63;;;;;;;;;;8220842;28;20060;-57
2023/12/20 23:55:53;;;;;;;2.53;0.50;;;;;;;;;;8224066;28;20021;-57
2023/12/20 23:59:53;;;;;;;0.55;0.55;;;;;;;;;;8229291;28;21099;-57
